sensor_id;sensor_type;location;lat;lon;timestamp;P1;durP1;ratioP1;P2;durP2;ratioP2
25155;SDS011;71253;51.496;7.606;2023-11-21T00:03:07;54.50;;;20.85;;
25155;SDS011;71253;51.496;7.606;2023-11-21T00:08:09;50.17;;;20.08;;
25155;SDS011;71253;51.496;7.606;2023-11-21T00:13:10;61.40;;;20.85;;
25155;SDS011;71253;51.496;7.606;2023-11-21T00:18:12;48.92;;;21.15;;
25155;SDS011;71253;51.496;7.606;2023-11-21T00:23:13;42.35;;;18.38;;
25155;SDS011;71253;51.496;7.606;2023-11-21T00:28:15;43.55;;;18.33;;
25155;SDS011;71253;51.496;7.606;2023-11-21T00:33:17;70.22;;;19.48;;
25155;SDS011;71253;51.496;7.606;2023-11-21T00:38:19;51.92;;;21.13;;
25155;SDS011;71253;51.496;7.606;2023-11-21T00:43:24;51.13;;;20.20;;
25155;SDS011;71253;51.496;7.606;2023-11-21T00:48:25;55.38;;;22.65;;
25155;SDS011;71253;51.496;7.606;2023-11-21T00:53:27;56.13;;;20.48;;
25155;SDS011;71253;51.496;7.606;2023-11-21T00:58:28;45.55;;;20.58;;
25155;SDS011;71253;51.496;7.606;2023-11-21T01:03:30;57.53;;;20.88;;
25155;SDS011;71253;51.496;7.606;2023-11-21T01:08:32;42.30;;;18.98;;
25155;SDS011;71253;51.496;7.606;2023-11-21T01:13:33;48.90;;;19.08;;
25155;SDS011;71253;51.496;7.606;2023-11-21T01:18:35;61.53;;;20.83;;
25155;SDS011;71253;51.496;7.606;2023-11-21T01:23:37;56.55;;;20.52;;
25155;SDS011;71253;51.496;7.606;2023-11-21T01:28:39;39.38;;;17.85;;
25155;SDS011;71253;51.496;7.606;2023-11-21T01:33:40;57.15;;;19.75;;
25155;SDS011;71253;51.496;7.606;2023-11-21T01:38:42;53.40;;;19.15;;
25155;SDS011;71253;51.496;7.606;2023-11-21T01:43:43;74.50;;;20.95;;
25155;SDS011;71253;51.496;7.606;2023-11-21T01:48:45;55.03;;;21.30;;
25155;SDS011;71253;51.496;7.606;2023-11-21T01:53:49;81.90;;;21.85;;
25155;SDS011;71253;51.496;7.606;2023-11-21T01:58:51;86.40;;;25.70;;
25155;SDS011;71253;51.496;7.606;2023-11-21T02:03:53;92.82;;;28.58;;
25155;SDS011;71253;51.496;7.606;2023-11-21T02:08:54;100.28;;;28.23;;
25155;SDS011;71253;51.496;7.606;2023-11-21T02:13:58;100.63;;;30.02;;
25155;SDS011;71253;51.496;7.606;2023-11-21T02:19:01;95.00;;;29.45;;
25155;SDS011;71253;51.496;7.606;2023-11-21T02:24:04;91.00;;;27.20;;
25155;SDS011;71253;51.496;7.606;2023-11-21T02:29:06;82.63;;;27.83;;
25155;SDS011;71253;51.496;7.606;2023-11-21T02:34:07;96.20;;;30.20;;
25155;SDS011;71253;51.496;7.606;2023-11-21T02:39:09;91.82;;;30.02;;
25155;SDS011;71253;51.496;7.606;2023-11-21T02:44:11;107.78;;;32.97;;
25155;SDS011;71253;51.496;7.606;2023-11-21T02:49:13;134.75;;;39.10;;
25155;SDS011;71253;51.496;7.606;2023-11-21T02:54:15;134.25;;;41.47;;
25155;SDS011;71253;51.496;7.606;2023-11-21T02:59:17;154.88;;;46.42;;
25155;SDS011;71253;51.496;7.606;2023-11-21T03:04:19;155.20;;;48.65;;
25155;SDS011;71253;51.496;7.606;2023-11-21T03:09:21;171.88;;;49.70;;
25155;SDS011;71253;51.496;7.606;2023-11-21T03:14:22;161.07;;;49.67;;
25155;SDS011;71253;51.496;7.606;2023-11-21T03:19:24;134.82;;;45.40;;
25155;SDS011;71253;51.496;7.606;2023-11-21T03:24:26;129.68;;;43.03;;
25155;SDS011;71253;51.496;7.606;2023-11-21T03:29:27;145.52;;;46.50;;
25155;SDS011;71253;51.496;7.606;2023-11-21T03:34:29;153.00;;;48.47;;
25155;SDS011;71253;51.496;7.606;2023-11-21T03:39:30;136.13;;;42.53;;
25155;SDS011;71253;51.496;7.606;2023-11-21T03:44:32;142.15;;;43.08;;
25155;SDS011;71253;51.496;7.606;2023-11-21T03:49:34;135.85;;;41.42;;
25155;SDS011;71253;51.496;7.606;2023-11-21T03:54:36;139.05;;;41.78;;
25155;SDS011;71253;51.496;7.606;2023-11-21T03:59:39;126.07;;;40.63;;
25155;SDS011;71253;51.496;7.606;2023-11-21T04:04:42;132.55;;;40.22;;
25155;SDS011;71253;51.496;7.606;2023-11-21T04:09:43;130.55;;;40.05;;
25155;SDS011;71253;51.496;7.606;2023-11-21T04:14:45;123.80;;;37.97;;
25155;SDS011;71253;51.496;7.606;2023-11-21T04:19:46;149.02;;;43.63;;
25155;SDS011;71253;51.496;7.606;2023-11-21T04:24:48;151.57;;;44.58;;
25155;SDS011;71253;51.496;7.606;2023-11-21T04:29:49;146.07;;;42.03;;
25155;SDS011;71253;51.496;7.606;2023-11-21T04:34:51;133.43;;;38.03;;
25155;SDS011;71253;51.496;7.606;2023-11-21T04:39:52;132.43;;;39.17;;
25155;SDS011;71253;51.496;7.606;2023-11-21T04:44:54;129.55;;;40.35;;
25155;SDS011;71253;51.496;7.606;2023-11-21T04:49:56;138.30;;;40.10;;
25155;SDS011;71253;51.496;7.606;2023-11-21T04:54:57;135.88;;;40.00;;
25155;SDS011;71253;51.496;7.606;2023-11-21T04:59:59;129.63;;;39.70;;
25155;SDS011;71253;51.496;7.606;2023-11-21T05:05:01;137.32;;;40.97;;
25155;SDS011;71253;51.496;7.606;2023-11-21T05:10:04;146.38;;;41.15;;
25155;SDS011;71253;51.496;7.606;2023-11-21T05:15:09;142.30;;;41.08;;
25155;SDS011;71253;51.496;7.606;2023-11-21T05:20:13;142.07;;;43.72;;
25155;SDS011;71253;51.496;7.606;2023-11-21T05:25:15;151.52;;;44.17;;
25155;SDS011;71253;51.496;7.606;2023-11-21T05:30:17;154.00;;;44.75;;
25155;SDS011;71253;51.496;7.606;2023-11-21T05:35:18;129.73;;;39.47;;
25155;SDS011;71253;51.496;7.606;2023-11-21T05:40:20;129.43;;;39.33;;
25155;SDS011;71253;51.496;7.606;2023-11-21T05:45:21;128.80;;;38.55;;
25155;SDS011;71253;51.496;7.606;2023-11-21T05:50:23;108.28;;;36.15;;
25155;SDS011;71253;51.496;7.606;2023-11-21T05:55:25;118.57;;;38.83;;
25155;SDS011;71253;51.496;7.606;2023-11-21T06:00:26;135.73;;;38.83;;
25155;SDS011;71253;51.496;7.606;2023-11-21T06:05:28;134.40;;;40.97;;
25155;SDS011;71253;51.496;7.606;2023-11-21T06:10:30;151.88;;;45.10;;
25155;SDS011;71253;51.496;7.606;2023-11-21T06:15:31;163.90;;;45.35;;
25155;SDS011;71253;51.496;7.606;2023-11-21T06:20:33;161.65;;;47.53;;
25155;SDS011;71253;51.496;7.606;2023-11-21T06:25:34;180.80;;;49.33;;
25155;SDS011;71253;51.496;7.606;2023-11-21T06:30:36;189.65;;;50.08;;
25155;SDS011;71253;51.496;7.606;2023-11-21T06:35:37;178.18;;;47.40;;
25155;SDS011;71253;51.496;7.606;2023-11-21T06:40:39;183.07;;;46.90;;
25155;SDS011;71253;51.496;7.606;2023-11-21T06:45:40;149.57;;;41.45;;
25155;SDS011;71253;51.496;7.606;2023-11-21T06:50:42;134.55;;;38.35;;
25155;SDS011;71253;51.496;7.606;2023-11-21T06:55:43;140.32;;;38.80;;
25155;SDS011;71253;51.496;7.606;2023-11-21T07:00:45;128.23;;;38.28;;
25155;SDS011;71253;51.496;7.606;2023-11-21T07:05:47;113.30;;;36.42;;
25155;SDS011;71253;51.496;7.606;2023-11-21T07:10:48;136.05;;;38.50;;
25155;SDS011;71253;51.496;7.606;2023-11-21T07:15:50;138.88;;;38.13;;
25155;SDS011;71253;51.496;7.606;2023-11-21T07:20:52;144.65;;;40.03;;
25155;SDS011;71253;51.496;7.606;2023-11-21T07:25:53;137.57;;;38.50;;
25155;SDS011;71253;51.496;7.606;2023-11-21T07:30:55;148.73;;;41.55;;
25155;SDS011;71253;51.496;7.606;2023-11-21T07:35:57;126.45;;;37.40;;
25155;SDS011;71253;51.496;7.606;2023-11-21T07:40:58;124.07;;;35.05;;
25155;SDS011;71253;51.496;7.606;2023-11-21T07:46:00;116.68;;;35.70;;
25155;SDS011;71253;51.496;7.606;2023-11-21T07:51:02;135.88;;;39.85;;
25155;SDS011;71253;51.496;7.606;2023-11-21T07:56:08;169.85;;;45.63;;
25155;SDS011;71253;51.496;7.606;2023-11-21T08:01:10;162.55;;;45.35;;
25155;SDS011;71253;51.496;7.606;2023-11-21T08:06:12;167.00;;;47.47;;
25155;SDS011;71253;51.496;7.606;2023-11-21T08:11:13;157.98;;;46.83;;
25155;SDS011;71253;51.496;7.606;2023-11-21T08:16:15;163.20;;;45.70;;
25155;SDS011;71253;51.496;7.606;2023-11-21T08:21:16;157.30;;;45.25;;
25155;SDS011;71253;51.496;7.606;2023-11-21T08:26:18;150.00;;;44.00;;
25155;SDS011;71253;51.496;7.606;2023-11-21T08:31:25;150.13;;;45.25;;
25155;SDS011;71253;51.496;7.606;2023-11-21T08:36:27;142.25;;;43.38;;
25155;SDS011;71253;51.496;7.606;2023-11-21T08:41:29;123.07;;;41.47;;
25155;SDS011;71253;51.496;7.606;2023-11-21T08:46:30;132.77;;;42.97;;
25155;SDS011;71253;51.496;7.606;2023-11-21T08:51:32;153.27;;;45.20;;
25155;SDS011;71253;51.496;7.606;2023-11-21T08:56:34;142.73;;;42.70;;
25155;SDS011;71253;51.496;7.606;2023-11-21T09:01:35;154.70;;;45.10;;
25155;SDS011;71253;51.496;7.606;2023-11-21T09:06:37;139.45;;;45.78;;
25155;SDS011;71253;51.496;7.606;2023-11-21T09:11:38;145.18;;;46.05;;
25155;SDS011;71253;51.496;7.606;2023-11-21T09:16:40;143.48;;;46.13;;
25155;SDS011;71253;51.496;7.606;2023-11-21T09:21:42;139.68;;;46.42;;
25155;SDS011;71253;51.496;7.606;2023-11-21T09:26:43;148.50;;;46.78;;
25155;SDS011;71253;51.496;7.606;2023-11-21T09:31:45;134.10;;;46.28;;
25155;SDS011;71253;51.496;7.606;2023-11-21T09:36:46;141.70;;;47.00;;
25155;SDS011;71253;51.496;7.606;2023-11-21T09:41:49;141.20;;;49.63;;
25155;SDS011;71253;51.496;7.606;2023-11-21T09:46:52;188.60;;;53.13;;
25155;SDS011;71253;51.496;7.606;2023-11-21T09:51:55;142.35;;;50.00;;
25155;SDS011;71253;51.496;7.606;2023-11-21T09:56:57;148.07;;;47.35;;
25155;SDS011;71253;51.496;7.606;2023-11-21T10:02:00;135.93;;;46.60;;
25155;SDS011;71253;51.496;7.606;2023-11-21T10:07:02;137.95;;;45.92;;
25155;SDS011;71253;51.496;7.606;2023-11-21T10:12:04;158.00;;;48.05;;
25155;SDS011;71253;51.496;7.606;2023-11-21T10:17:08;153.50;;;47.58;;
25155;SDS011;71253;51.496;7.606;2023-11-21T10:22:11;154.15;;;48.35;;
25155;SDS011;71253;51.496;7.606;2023-11-21T10:27:12;181.52;;;54.60;;
25155;SDS011;71253;51.496;7.606;2023-11-21T10:32:14;183.60;;;54.35;;
25155;SDS011;71253;51.496;7.606;2023-11-21T10:37:15;189.27;;;54.90;;
25155;SDS011;71253;51.496;7.606;2023-11-21T10:42:18;189.35;;;56.00;;
25155;SDS011;71253;51.496;7.606;2023-11-21T10:47:20;182.90;;;56.80;;
25155;SDS011;71253;51.496;7.606;2023-11-21T10:52:21;199.50;;;57.45;;
25155;SDS011;71253;51.496;7.606;2023-11-21T10:57:27;173.85;;;54.30;;
25155;SDS011;71253;51.496;7.606;2023-11-21T11:02:29;168.88;;;54.13;;
25155;SDS011;71253;51.496;7.606;2023-11-21T11:07:31;158.70;;;50.75;;
25155;SDS011;71253;51.496;7.606;2023-11-21T11:12:36;138.48;;;48.67;;
25155;SDS011;71253;51.496;7.606;2023-11-21T11:17:38;126.00;;;48.58;;
25155;SDS011;71253;51.496;7.606;2023-11-21T11:22:42;148.30;;;51.97;;
25155;SDS011;71253;51.496;7.606;2023-11-21T11:38:07;153.95;;;53.72;;
25155;SDS011;71253;51.496;7.606;2023-11-21T11:43:09;151.77;;;51.60;;
25155;SDS011;71253;51.496;7.606;2023-11-21T11:48:11;146.63;;;47.92;;
25155;SDS011;71253;51.496;7.606;2023-11-21T11:53:13;138.80;;;46.80;;
25155;SDS011;71253;51.496;7.606;2023-11-21T11:58:16;117.25;;;39.30;;
25155;SDS011;71253;51.496;7.606;2023-11-21T12:03:17;113.00;;;41.95;;
25155;SDS011;71253;51.496;7.606;2023-11-21T12:08:20;111.18;;;37.22;;
25155;SDS011;71253;51.496;7.606;2023-11-21T12:13:22;106.78;;;37.97;;
25155;SDS011;71253;51.496;7.606;2023-11-21T12:18:24;103.75;;;34.72;;
25155;SDS011;71253;51.496;7.606;2023-11-21T12:23:25;97.93;;;34.20;;
25155;SDS011;71253;51.496;7.606;2023-11-21T12:28:27;86.40;;;30.95;;
25155;SDS011;71253;51.496;7.606;2023-11-21T12:33:29;81.35;;;29.48;;
25155;SDS011;71253;51.496;7.606;2023-11-21T12:38:34;82.00;;;29.15;;
25155;SDS011;71253;51.496;7.606;2023-11-21T12:43:35;80.57;;;29.40;;
25155;SDS011;71253;51.496;7.606;2023-11-21T12:48:37;86.75;;;29.52;;
25155;SDS011;71253;51.496;7.606;2023-11-21T12:53:39;75.78;;;28.67;;
25155;SDS011;71253;51.496;7.606;2023-11-21T12:58:44;75.25;;;28.45;;
25155;SDS011;71253;51.496;7.606;2023-11-21T13:03:47;86.15;;;30.42;;
25155;SDS011;71253;51.496;7.606;2023-11-21T13:08:49;76.53;;;28.85;;
25155;SDS011;71253;51.496;7.606;2023-11-21T13:13:51;88.50;;;33.30;;
25155;SDS011;71253;51.496;7.606;2023-11-21T13:18:53;82.75;;;30.70;;
25155;SDS011;71253;51.496;7.606;2023-11-21T13:23:54;73.60;;;27.58;;
25155;SDS011;71253;51.496;7.606;2023-11-21T13:28:56;70.07;;;26.40;;
25155;SDS011;71253;51.496;7.606;2023-11-21T13:33:57;65.53;;;26.83;;
25155;SDS011;71253;51.496;7.606;2023-11-21T13:39:03;64.88;;;25.38;;
25155;SDS011;71253;51.496;7.606;2023-11-21T13:44:05;55.65;;;23.88;;
25155;SDS011;71253;51.496;7.606;2023-11-21T13:49:07;51.20;;;22.45;;
25155;SDS011;71253;51.496;7.606;2023-11-21T13:54:08;61.10;;;24.65;;
25155;SDS011;71253;51.496;7.606;2023-11-21T13:59:10;54.25;;;22.38;;
25155;SDS011;71253;51.496;7.606;2023-11-21T14:04:11;56.60;;;23.42;;
25155;SDS011;71253;51.496;7.606;2023-11-21T14:09:17;61.42;;;23.13;;
25155;SDS011;71253;51.496;7.606;2023-11-21T14:14:21;54.80;;;22.02;;
25155;SDS011;71253;51.496;7.606;2023-11-21T14:19:24;46.03;;;19.27;;
25155;SDS011;71253;51.496;7.606;2023-11-21T14:24:26;44.55;;;18.10;;
25155;SDS011;71253;51.496;7.606;2023-11-21T14:29:27;41.05;;;16.88;;
25155;SDS011;71253;51.496;7.606;2023-11-21T14:34:29;40.83;;;18.60;;
25155;SDS011;71253;51.496;7.606;2023-11-21T14:39:31;35.40;;;18.52;;
25155;SDS011;71253;51.496;7.606;2023-11-21T14:44:32;31.52;;;17.52;;
25155;SDS011;71253;51.496;7.606;2023-11-21T14:49:34;30.85;;;16.75;;
25155;SDS011;71253;51.496;7.606;2023-11-21T14:54:36;29.92;;;16.55;;
25155;SDS011;71253;51.496;7.606;2023-11-21T14:59:42;27.02;;;17.10;;
25155;SDS011;71253;51.496;7.606;2023-11-21T15:04:45;34.13;;;18.50;;
25155;SDS011;71253;51.496;7.606;2023-11-21T15:09:46;44.08;;;22.88;;
25155;SDS011;71253;51.496;7.606;2023-11-21T15:14:49;48.22;;;26.48;;
25155;SDS011;71253;51.496;7.606;2023-11-21T15:19:52;53.03;;;30.23;;
25155;SDS011;71253;51.496;7.606;2023-11-21T15:24:54;57.60;;;31.30;;
25155;SDS011;71253;51.496;7.606;2023-11-21T15:29:56;56.38;;;32.22;;
25155;SDS011;71253;51.496;7.606;2023-11-21T15:34:58;61.78;;;33.83;;
25155;SDS011;71253;51.496;7.606;2023-11-21T15:39:59;69.85;;;36.75;;
25155;SDS011;71253;51.496;7.606;2023-11-21T15:45:01;65.90;;;36.65;;
25155;SDS011;71253;51.496;7.606;2023-11-21T15:50:03;62.97;;;35.25;;
25155;SDS011;71253;51.496;7.606;2023-11-21T15:55:05;53.92;;;31.20;;
25155;SDS011;71253;51.496;7.606;2023-11-21T16:00:07;50.20;;;28.23;;
25155;SDS011;71253;51.496;7.606;2023-11-21T16:05:09;42.33;;;24.38;;
25155;SDS011;71253;51.496;7.606;2023-11-21T16:10:11;46.88;;;24.20;;
25155;SDS011;71253;51.496;7.606;2023-11-21T16:15:12;40.60;;;22.25;;
25155;SDS011;71253;51.496;7.606;2023-11-21T16:20:14;45.17;;;24.30;;
25155;SDS011;71253;51.496;7.606;2023-11-21T16:25:16;38.13;;;21.60;;
25155;SDS011;71253;51.496;7.606;2023-11-21T16:30:17;40.97;;;22.38;;
25155;SDS011;71253;51.496;7.606;2023-11-21T16:35:19;36.85;;;22.58;;
25155;SDS011;71253;51.496;7.606;2023-11-21T16:40:20;42.67;;;23.35;;
25155;SDS011;71253;51.496;7.606;2023-11-21T16:45:22;42.65;;;24.88;;
25155;SDS011;71253;51.496;7.606;2023-11-21T16:50:23;45.67;;;23.95;;
25155;SDS011;71253;51.496;7.606;2023-11-21T16:55:25;47.60;;;26.83;;
25155;SDS011;71253;51.496;7.606;2023-11-21T17:00:27;41.92;;;24.60;;
25155;SDS011;71253;51.496;7.606;2023-11-21T17:05:28;44.88;;;24.92;;
25155;SDS011;71253;51.496;7.606;2023-11-21T17:10:30;45.83;;;25.45;;
25155;SDS011;71253;51.496;7.606;2023-11-21T17:15:32;47.85;;;25.92;;
25155;SDS011;71253;51.496;7.606;2023-11-21T17:20:33;51.15;;;27.63;;
25155;SDS011;71253;51.496;7.606;2023-11-21T17:25:35;48.42;;;27.30;;
25155;SDS011;71253;51.496;7.606;2023-11-21T17:30:37;55.47;;;29.30;;
25155;SDS011;71253;51.496;7.606;2023-11-21T17:35:39;54.17;;;29.45;;
25155;SDS011;71253;51.496;7.606;2023-11-21T17:40:40;55.05;;;29.92;;
25155;SDS011;71253;51.496;7.606;2023-11-21T17:45:43;61.15;;;31.00;;
25155;SDS011;71253;51.496;7.606;2023-11-21T17:50:45;53.10;;;28.10;;
25155;SDS011;71253;51.496;7.606;2023-11-21T17:55:46;52.47;;;27.55;;
25155;SDS011;71253;51.496;7.606;2023-11-21T18:00:48;49.60;;;25.27;;
25155;SDS011;71253;51.496;7.606;2023-11-21T18:05:50;41.03;;;21.77;;
25155;SDS011;71253;51.496;7.606;2023-11-21T18:10:51;32.95;;;20.13;;
25155;SDS011;71253;51.496;7.606;2023-11-21T18:15:53;36.72;;;18.50;;
25155;SDS011;71253;51.496;7.606;2023-11-21T18:20:54;37.50;;;21.02;;
25155;SDS011;71253;51.496;7.606;2023-11-21T18:25:56;38.72;;;21.80;;
25155;SDS011;71253;51.496;7.606;2023-11-21T18:30:58;35.92;;;20.85;;
25155;SDS011;71253;51.496;7.606;2023-11-21T18:35:59;37.72;;;21.77;;
25155;SDS011;71253;51.496;7.606;2023-11-21T18:41:01;36.63;;;20.52;;
25155;SDS011;71253;51.496;7.606;2023-11-21T18:46:02;37.42;;;21.10;;
25155;SDS011;71253;51.496;7.606;2023-11-21T18:51:04;41.05;;;22.17;;
25155;SDS011;71253;51.496;7.606;2023-11-21T18:56:05;43.75;;;22.23;;
25155;SDS011;71253;51.496;7.606;2023-11-21T19:01:07;39.15;;;21.67;;
25155;SDS011;71253;51.496;7.606;2023-11-21T19:06:09;37.60;;;21.05;;
25155;SDS011;71253;51.496;7.606;2023-11-21T19:11:10;41.97;;;22.65;;
25155;SDS011;71253;51.496;7.606;2023-11-21T19:16:12;50.08;;;24.48;;
25155;SDS011;71253;51.496;7.606;2023-11-21T19:21:14;45.70;;;24.52;;
25155;SDS011;71253;51.496;7.606;2023-11-21T19:26:16;45.53;;;25.80;;
25155;SDS011;71253;51.496;7.606;2023-11-21T19:31:18;46.35;;;24.85;;
25155;SDS011;71253;51.496;7.606;2023-11-21T19:36:21;48.97;;;27.83;;
25155;SDS011;71253;51.496;7.606;2023-11-21T19:41:22;55.47;;;29.00;;
25155;SDS011;71253;51.496;7.606;2023-11-21T19:46:24;52.22;;;27.98;;
25155;SDS011;71253;51.496;7.606;2023-11-21T19:51:25;50.60;;;26.33;;
25155;SDS011;71253;51.496;7.606;2023-11-21T19:56:27;51.03;;;28.02;;
25155;SDS011;71253;51.496;7.606;2023-11-21T20:01:29;43.42;;;25.70;;
25155;SDS011;71253;51.496;7.606;2023-11-21T20:06:30;40.38;;;24.58;;
25155;SDS011;71253;51.496;7.606;2023-11-21T20:11:32;43.65;;;24.45;;
25155;SDS011;71253;51.496;7.606;2023-11-21T20:16:38;43.33;;;23.05;;
25155;SDS011;71253;51.496;7.606;2023-11-21T20:21:40;43.97;;;23.80;;
25155;SDS011;71253;51.496;7.606;2023-11-21T20:26:41;44.95;;;24.40;;
25155;SDS011;71253;51.496;7.606;2023-11-21T20:31:43;46.20;;;23.88;;
25155;SDS011;71253;51.496;7.606;2023-11-21T20:36:48;45.13;;;21.95;;
25155;SDS011;71253;51.496;7.606;2023-11-21T20:41:50;37.35;;;21.27;;
25155;SDS011;71253;51.496;7.606;2023-11-21T20:46:51;36.97;;;20.80;;
25155;SDS011;71253;51.496;7.606;2023-11-21T20:51:53;38.47;;;20.70;;
25155;SDS011;71253;51.496;7.606;2023-11-21T20:56:55;32.03;;;18.50;;
25155;SDS011;71253;51.496;7.606;2023-11-21T21:01:56;29.00;;;17.02;;
25155;SDS011;71253;51.496;7.606;2023-11-21T21:06:58;27.95;;;17.27;;
25155;SDS011;71253;51.496;7.606;2023-11-21T21:11:59;34.08;;;17.75;;
25155;SDS011;71253;51.496;7.606;2023-11-21T21:17:01;35.38;;;18.52;;
25155;SDS011;71253;51.496;7.606;2023-11-21T21:22:02;34.53;;;18.20;;
25155;SDS011;71253;51.496;7.606;2023-11-21T21:27:04;32.33;;;18.60;;
25155;SDS011;71253;51.496;7.606;2023-11-21T21:32:06;36.80;;;20.90;;
25155;SDS011;71253;51.496;7.606;2023-11-21T21:37:07;41.05;;;22.92;;
25155;SDS011;71253;51.496;7.606;2023-11-21T21:42:09;39.47;;;21.90;;
25155;SDS011;71253;51.496;7.606;2023-11-21T21:47:10;39.92;;;21.75;;
25155;SDS011;71253;51.496;7.606;2023-11-21T21:52:12;36.67;;;21.45;;
25155;SDS011;71253;51.496;7.606;2023-11-21T21:57:13;38.72;;;22.27;;
25155;SDS011;71253;51.496;7.606;2023-11-21T22:02:15;39.60;;;22.20;;
25155;SDS011;71253;51.496;7.606;2023-11-21T22:07:17;37.53;;;22.60;;
25155;SDS011;71253;51.496;7.606;2023-11-21T22:12:19;40.22;;;22.77;;
25155;SDS011;71253;51.496;7.606;2023-11-21T22:17:20;42.80;;;22.60;;
25155;SDS011;71253;51.496;7.606;2023-11-21T22:22:22;35.67;;;21.63;;
25155;SDS011;71253;51.496;7.606;2023-11-21T22:27:24;43.55;;;22.65;;
25155;SDS011;71253;51.496;7.606;2023-11-21T22:32:26;40.42;;;22.13;;
25155;SDS011;71253;51.496;7.606;2023-11-21T22:37:28;31.98;;;18.65;;
25155;SDS011;71253;51.496;7.606;2023-11-21T22:42:30;29.48;;;18.17;;
25155;SDS011;71253;51.496;7.606;2023-11-21T22:47:31;27.10;;;16.42;;
25155;SDS011;71253;51.496;7.606;2023-11-21T22:52:33;28.77;;;16.20;;
25155;SDS011;71253;51.496;7.606;2023-11-21T22:57:35;23.63;;;15.10;;
25155;SDS011;71253;51.496;7.606;2023-11-21T23:02:36;29.45;;;15.45;;
25155;SDS011;71253;51.496;7.606;2023-11-21T23:07:38;29.30;;;16.70;;
25155;SDS011;71253;51.496;7.606;2023-11-21T23:12:40;29.45;;;16.58;;
25155;SDS011;71253;51.496;7.606;2023-11-21T23:17:41;28.92;;;17.48;;
25155;SDS011;71253;51.496;7.606;2023-11-21T23:22:43;30.52;;;18.40;;
25155;SDS011;71253;51.496;7.606;2023-11-21T23:27:44;27.10;;;16.55;;
25155;SDS011;71253;51.496;7.606;2023-11-21T23:32:46;28.75;;;16.02;;
25155;SDS011;71253;51.496;7.606;2023-11-21T23:37:47;26.75;;;14.88;;
25155;SDS011;71253;51.496;7.606;2023-11-21T23:42:49;27.48;;;15.45;;
25155;SDS011;71253;51.496;7.606;2023-11-21T23:47:50;27.73;;;14.82;;
25155;SDS011;71253;51.496;7.606;2023-11-21T23:52:52;26.35;;;15.48;;
25155;SDS011;71253;51.496;7.606;2023-11-21T23:57:54;25.92;;;13.88;;
